Nearby METAR Reports

 

KLXT - Lees Summit Muni, Missouri, USA
Distance from station: E 5mi, 9km
Updated: Fri, 24-Oct-2014 8:53pm CDT
Clear
Clear
 Wind from SW
Wind: SW 10 mph , 17 km/h
Temperature: 68°F , 20°C
Dew Point: 61°F , 16°C
Humidity: 78%
Barometer: 29.98 inHg , 1015.2 hPa
Clouds: Clear
Visibility: 10 miles , 16 km
2014/10/25 01:53 KLXT 250153Z AUTO 22009KT 10SM CLR 20/16 A2998 RMK AO2 SLP147 T02000161
KMKC - Kansas City/Dntn, Missouri, USA
Distance from station: NW 12mi, 19km
Updated: Fri, 24-Oct-2014 8:54pm CDT
Clear
Clear
 Wind from SW
Wind: SW 6 mph , 9 km/h
Temperature: 72°F , 22°C
Dew Point: 61°F , 16°C
Humidity: 69%
Barometer: 29.96 inHg , 1014.6 hPa
Clouds: Clear
Visibility: 10 miles , 16 km
2014/10/25 01:54 KMKC 250154Z 22005KT 10SM CLR 22/16 A2996 RMK AO2 SLP141 T02170161
 
KIXD - Olathe/Industria, Kansas, USA
Distance from station: WSW 25mi, 41km
Updated: Fri, 24-Oct-2014 8:53pm CDT
Clear
Clear
 Wind from S
Wind: S 10 mph , 17 km/h
Temperature: 66°F , 19°C
Dew Point: 61°F , 16°C
Humidity: 83%
Barometer: 29.98 inHg , 1015.2 hPa
Clouds: Clear
Visibility: 10 miles , 16 km
2014/10/25 01:53 KIXD 250153Z 19009KT 10SM CLR 19/16 A2998 RMK AO2 SLP146 T01890161
KMCI - Kansas City/Intl, Missouri, USA
Distance from station: NW 26mi, 42km
Updated: Fri, 24-Oct-2014 8:53pm CDT
Mostly cloudy
Mostly cloudy
 Wind from SW
Wind: SW 7 mph , 11 km/h
Temperature: 66°F , 19°C
Dew Point: 61°F , 16°C
Humidity: 83%
Barometer: 29.97 inHg , 1014.9 hPa
Clouds: Mostly cloudy
Visibility: 10 miles , 16 km
Cloud details: Mostly cloudy 25000 ft
2014/10/25 01:53 KMCI 250153Z 22006KT 10SM BKN250 19/16 A2997 RMK AO2 SLP144 T01890161
 
KRCM - Warrensburg Skyh, Missouri, USA
Distance from station: ESE 38mi, 62km
Updated: Fri, 24-Oct-2014 9:15pm CDT
Clear
Clear
 Wind from SSW
Wind: SSW 3 mph , 6 km/h
Temperature: 64°F , 18°C
Dew Point: 59°F , 15°C
Humidity: 83%
Barometer: 30.00 inHg , 1015.9 hPa
Clouds: Clear
Visibility: 10 miles , 16 km
2014/10/25 02:15 KRCM 250215Z AUTO 21003KT 10SM CLR 18/15 A3000 RMK AO2
KLWC - Lawrence, Kansas, USA
Distance from station: W 40mi, 65km
Updated: Fri, 24-Oct-2014 8:52pm CDT
Clear
Clear
 Wind from calm
Wind: Calm
Temperature: 63°F , 17°C
Dew Point: 57°F , 14°C
Humidity: 83%
Barometer: 29.96 inHg , 1014.6 hPa
Clouds: Clear
Visibility: 9 miles , 14 km
2014/10/25 01:52 KLWC 250152Z AUTO 00000KT 9SM CLR 17/14 A2996 RMK AO2 SLP144 T01670144
 
KSZL - Whiteman Afb, Missouri, USA
Distance from station: ESE 53mi, 86km
Updated: Fri, 24-Oct-2014 8:58pm CDT
Clear
Clear
 Wind from SSW
Wind: SSW 10 mph , 17 km/h
Temperature: 64°F , 18°C
Dew Point: 61°F , 16°C
Humidity: 88%
Barometer: 29.97 inHg , 1014.9 hPa
Clouds: Clear
Visibility: 10 miles , 16 km
2014/10/25 01:58 KSZL 250158Z 21009KT 10SM CLR 18/16 A2997 RMK AO2A SLP149 T01810160 $
KSTJ - St. Joseph, Missouri, USA
Distance from station: NNW 59mi, 95km
Updated: Fri, 24-Oct-2014 9:35pm CDT
Mist, Clear
Mist, Clear
 Wind from S
Wind: S 3 mph , 6 km/h
Temperature: 61°F , 16°C
Dew Point: 59°F , 15°C
Humidity: 94%
Barometer: 29.96 inHg , 1014.6 hPa
Summary: Mist
Clouds: Clear
Visibility: 1 3/4 miles , 5 km
2014/10/25 02:35 KSTJ 250235Z AUTO 19003KT 1 3/4SM BR CLR 16/15 A2996 RMK AO2 T01560150
 
KGLY - Clinton, Missouri, USA
Distance from station: SE 61mi, 98km
Updated: Fri, 24-Oct-2014 9:35pm CDT
Haze, Clear
Haze, Clear
 Wind from SSW
Wind: SSW 6 mph , 9 km/h
Temperature: 66°F , 19°C
Dew Point: 63°F , 17°C
Humidity: 88%
Barometer: 30.01 inHg , 1016.3 hPa
Summary: Haze
Clouds: Clear
Visibility: 5 miles , 8 km
2014/10/25 02:35 KGLY 250235Z AUTO 20005KT 5SM HZ CLR 19/17 A3001 RMK AO2
KFOE - Topeka/Forbes, Kansas, USA
Distance from station: W 64mi, 103km
Updated: Fri, 24-Oct-2014 8:53pm CDT
Clear
Clear
 Wind from SSW
Wind: SSW 8 mph , 13 km/h
Temperature: 64°F , 18°C
Dew Point: 59°F , 15°C
Humidity: 83%
Barometer: 29.96 inHg , 1014.6 hPa
Clouds: Clear
Visibility: 10 miles , 16 km
2014/10/25 01:53 KFOE 250153Z 21007KT 10SM CLR 18/15 A2996 RMK AO2 SLP140 T01830150
 
KDMO - Sedalia, Missouri, USA
Distance from station: ESE 72mi, 116km
Updated: Fri, 24-Oct-2014 8:53pm CDT
Clear
Clear
 Wind from SSW
Wind: SSW 13 mph , 20 km/h
Temperature: 70°F , 21°C
Dew Point: 61°F , 16°C
Humidity: 73%
Barometer: 29.99 inHg , 1015.6 hPa
Clouds: Clear
Visibility: 10 miles , 16 km
2014/10/25 01:53 KDMO 250153Z AUTO 21011KT 10SM CLR 21/16 A2999 RMK AO2 SLP151 T02060161
KCDJ - Chillicothe, Missouri, USA
Distance from station: NE 74mi, 120km
Updated: Fri, 24-Oct-2014 8:52pm CDT

 Wind from calm
Wind: Calm
Temperature: 61°F , 16°C
Dew Point: 57°F , 14°C
Humidity: 88%
Barometer: 29.96 inHg , 1014.6 hPa
2014/10/25 01:52 KCDJ 250152Z AUTO 00000KT 16/14 A2996 RMK AO1 SLP144 T01610144
 
KFNB - Falls City/Brenn, Nebraska, USA
Distance from station: NW 96mi, 154km
Updated: Fri, 24-Oct-2014 8:53pm CDT
Clear
Clear
 Wind from calm
Wind: Calm
Temperature: 66°F , 19°C
Dew Point: 61°F , 16°C
Humidity: 83%
Barometer: 29.95 inHg , 1014.2 hPa
Clouds: Clear
Visibility: 10 miles , 16 km
2014/10/25 01:53 KFNB 250153Z AUTO 00000KT 10SM CLR 19/16 A2995 RMK AO2 SLP138 T01940161
KVER - Boonville, Missouri, USA
Distance from station: E 96mi, 154km
Updated: Fri, 24-Oct-2014 9:35pm CDT
Clear
Clear
 Wind from calm
Wind: Calm
Temperature: 66°F , 19°C
Dew Point: 59°F , 15°C
Humidity: 78%
Barometer: 29.99 inHg , 1015.6 hPa
Clouds: Clear
Visibility: 10 miles , 16 km
2014/10/25 02:35 KVER 250235Z AUTO 00000KT 10SM CLR 19/15 A2999 RMK AO2 T01880151